createdAt,value
2018-04-28T04:09:56.965Z,252
2018-04-28T04:10:22.460Z,264
2018-04-28T04:10:47.948Z,276
2018-04-28T04:11:13.460Z,288
2018-04-28T04:11:38.928Z,296
2018-04-28T04:12:04.441Z,308
2018-04-28T04:12:30.021Z,320
2018-04-28T04:12:55.513Z,328
2018-04-28T04:13:21.100Z,336
2018-04-28T04:13:46.559Z,344
2018-04-28T04:14:12.099Z,356
2018-04-28T04:14:37.598Z,368
2018-04-28T04:15:03.100Z,380
2018-04-28T04:15:28.606Z,396
2018-04-28T04:15:54.092Z,408
2018-04-28T04:16:20.021Z,420
2018-04-28T04:16:45.429Z,436
2018-04-28T04:17:10.923Z,452
2018-04-28T04:17:36.452Z,468
2018-04-28T04:18:02.021Z,488
2018-04-28T04:18:27.559Z,500
2018-04-28T04:18:53.037Z,516
2018-04-28T04:19:18.546Z,528
2018-04-28T04:19:44.024Z,544
2018-04-28T04:20:09.503Z,560
2018-04-28T04:20:35.165Z,572
2018-04-28T04:21:00.727Z,592
2018-04-28T04:21:26.223Z,608
2018-04-28T04:21:51.694Z,624
2018-04-28T04:22:17.324Z,636
2018-04-28T04:22:42.725Z,652
2018-04-28T04:23:08.199Z,664
2018-04-28T04:23:33.671Z,680
2018-04-28T04:23:59.413Z,696
2018-04-28T04:24:24.879Z,716
2018-04-28T04:24:50.378Z,732
2018-04-28T04:25:15.872Z,756
2018-04-28T04:25:41.346Z,776
2018-04-28T04:26:06.854Z,800
2018-04-28T04:26:32.376Z,816
2018-04-28T04:26:57.830Z,836
2018-04-28T04:27:23.320Z,856
2018-04-28T04:27:48.852Z,876
2018-04-28T04:28:14.357Z,896
2018-04-28T04:28:39.850Z,928
2018-04-28T04:29:05.381Z,956
2018-04-28T04:29:30.852Z,984
2018-04-28T04:29:56.392Z,1020
2018-04-28T04:30:21.857Z,1052
2018-04-28T04:30:47.331Z,1080
2018-04-28T04:31:12.983Z,1112
2018-04-28T04:31:38.450Z,1148
2018-04-28T04:32:03.952Z,1176
2018-04-28T04:32:29.456Z,1208
2018-04-28T04:32:54.958Z,1240
2018-04-28T04:33:20.469Z,1276
2018-04-28T04:33:46.008Z,1312
2018-04-28T04:34:11.518Z,1348
2018-04-28T04:34:37.011Z,1388
2018-04-28T04:35:02.478Z,1428
2018-04-28T04:35:27.951Z,1472
2018-04-28T04:35:53.424Z,1516
2018-04-28T04:36:19.019Z,1552
2018-04-28T04:36:44.540Z,1596
2018-04-28T04:37:10.023Z,1640
2018-04-28T04:37:35.607Z,1684
2018-04-28T04:38:01.047Z,1724
2018-04-28T04:38:26.524Z,1760
2018-04-28T04:38:52.037Z,1796
2018-04-28T04:39:17.516Z,1828
2018-04-28T04:39:42.998Z,1864
2018-04-28T04:40:08.557Z,1896
2018-04-28T04:40:34.293Z,1928
2018-04-28T04:40:59.864Z,1956
2018-04-28T04:41:25.420Z,1988
2018-04-28T04:41:50.899Z,2004
2018-04-28T04:42:16.380Z,2028
2018-04-28T04:42:41.862Z,2044
2018-04-28T04:43:07.334Z,2056
2018-04-28T04:43:32.856Z,2072
2018-04-28T04:43:58.325Z,2084
2018-04-28T04:44:23.853Z,2092
2018-04-28T04:45:37.646Z,2140
2018-04-28T04:46:03.134Z,2160
2018-04-28T04:46:28.642Z,2172
2018-04-28T04:46:54.144Z,2184
2018-04-28T04:47:19.616Z,2204
2018-04-28T04:47:45.110Z,2224
2018-04-28T04:48:10.605Z,2244
2018-04-28T04:48:36.082Z,2272
2018-04-28T04:49:01.588Z,2300
2018-04-28T04:49:27.109Z,2328
2018-04-28T04:49:52.542Z,2368
2018-04-28T04:50:18.064Z,2412
2018-04-28T04:50:43.613Z,2460
2018-04-28T04:51:08.999Z,2512
2018-04-28T04:51:34.528Z,2560
2018-04-28T04:52:00.044Z,2612
2018-04-28T04:52:25.615Z,2664
2018-04-28T04:52:51.078Z,2708
2018-04-28T04:53:16.573Z,2748
2018-04-28T04:53:42.034Z,2784
2018-04-28T04:54:07.544Z,2808
2018-04-28T04:54:33.013Z,2828
2018-04-28T04:54:58.515Z,2848
2018-04-28T04:55:24.028Z,2868
2018-04-28T04:55:49.535Z,2896
2018-04-28T04:56:15.040Z,2908
2018-04-28T04:56:40.514Z,2932
2018-04-28T04:57:06.063Z,2944
2018-04-28T04:57:31.557Z,2952
2018-04-28T04:57:57.023Z,2960
2018-04-28T04:58:22.467Z,2952
2018-04-28T04:58:47.972Z,2940
2018-04-28T04:59:13.512Z,2928
2018-04-28T04:59:38.980Z,2932
2018-04-28T05:00:04.496Z,2944
2018-04-28T05:00:29.949Z,2968
2018-04-28T05:00:55.457Z,2988
2018-04-28T05:01:20.969Z,3012
2018-04-28T05:01:46.455Z,3028
2018-04-28T05:02:11.971Z,3060
2018-04-28T05:02:37.456Z,3088
2018-04-28T05:03:02.914Z,3124
2018-04-28T05:03:28.475Z,3164
2018-04-28T05:03:53.955Z,3216
2018-04-28T05:04:19.766Z,3284
2018-04-28T05:04:45.500Z,3344
2018-04-28T05:05:11.818Z,3388
2018-04-28T05:05:36.821Z,3432
2018-04-28T05:06:02.321Z,3448
2018-04-28T05:06:27.848Z,3476
2018-04-28T05:06:53.444Z,3528
2018-04-28T05:07:18.978Z,3556
2018-04-28T05:07:44.578Z,3612
2018-04-28T05:08:10.450Z,3684
2018-04-28T05:08:36.935Z,3728
2018-04-28T05:09:02.889Z,3756
2018-04-28T05:09:28.830Z,3792
2018-04-28T05:09:54.323Z,3836
2018-04-28T05:10:19.823Z,3884
2018-04-28T05:10:45.382Z,3920
2018-04-28T05:11:11.000Z,3936
2018-04-28T05:11:36.663Z,3960
2018-04-28T05:12:02.217Z,4000
2018-04-28T05:12:27.822Z,4024
2018-04-28T05:12:57.724Z,4036
2018-04-28T05:13:24.232Z,4052
2018-04-28T05:13:50.043Z,4080
2018-04-28T05:14:15.601Z,4076
2018-04-28T05:14:41.987Z,4012
2018-04-28T05:15:07.572Z,4012
2018-04-28T05:15:33.140Z,3980
2018-04-28T05:15:59.493Z,3988
2018-04-28T05:16:25.204Z,4000
2018-04-28T05:16:50.678Z,4084
2018-04-28T05:17:16.363Z,4116
2018-04-28T05:17:41.890Z,4108
2018-04-28T05:18:07.780Z,4152
2018-04-28T05:18:34.081Z,4208
2018-04-28T05:19:00.080Z,4292
2018-04-28T05:19:25.566Z,4372
2018-04-28T05:19:51.176Z,4516
2018-04-28T05:20:17.246Z,4688
2018-04-28T05:20:43.838Z,4880
2018-04-28T05:21:09.571Z,4832
2018-04-28T05:21:35.181Z,4752
2018-04-28T05:22:00.820Z,4936
2018-04-28T05:22:26.614Z,4948
2018-04-28T05:22:52.555Z,4932
2018-04-28T05:23:18.046Z,5012
2018-04-28T05:23:43.867Z,5300
2018-04-28T05:24:09.497Z,5464
2018-04-28T05:25:18.788Z,5780
2018-04-28T05:25:44.138Z,5876
2018-04-28T05:26:10.944Z,5944
2018-04-28T05:26:36.672Z,6004
2018-04-28T05:27:04.883Z,6040
2018-04-28T05:27:30.591Z,6076
2018-04-28T05:27:56.138Z,6092
2018-04-28T05:28:21.691Z,6088
2018-04-28T05:28:47.231Z,6140
2018-04-28T05:29:12.723Z,6240
2018-04-28T05:29:38.299Z,6304
2018-04-28T05:30:04.066Z,6360
2018-04-28T05:30:29.515Z,6440
2018-04-28T05:30:55.370Z,6500
2018-04-28T05:31:20.741Z,6520
2018-04-28T05:31:46.410Z,6508
2018-04-28T05:32:12.011Z,6612
2018-04-28T05:32:37.680Z,6728
2018-04-28T05:33:03.319Z,6672
2018-04-28T05:33:28.863Z,6640
2018-04-28T05:33:54.550Z,6608
2018-04-28T05:34:20.061Z,6620
2018-04-28T05:34:45.681Z,6688
2018-04-28T05:35:11.243Z,6748
2018-04-28T05:35:36.879Z,6808
2018-04-28T05:36:02.633Z,6868
2018-04-28T05:36:28.179Z,6896
2018-04-28T05:36:53.811Z,6948
2018-04-28T05:37:19.416Z,7080
2018-04-28T05:37:45.031Z,7120
2018-04-28T05:38:10.542Z,7156
2018-04-28T05:38:36.089Z,7248
2018-04-28T05:39:01.694Z,7264
2018-04-28T05:39:27.242Z,7196
2018-04-28T05:39:52.907Z,7052
2018-04-28T05:40:18.512Z,7064
2018-04-28T05:40:44.078Z,7032
2018-04-28T05:41:09.602Z,7024
2018-04-28T05:41:35.163Z,7048
2018-04-28T05:42:00.710Z,7008
2018-04-28T05:42:26.633Z,6940
2018-04-28T05:42:52.010Z,6912
2018-04-28T05:43:17.599Z,6888
2018-04-28T05:43:43.114Z,6924
2018-04-28T05:44:08.992Z,6956
2018-04-28T05:44:34.499Z,6972
2018-04-28T05:44:59.998Z,7008
2018-04-28T05:45:25.472Z,7056
2018-04-28T05:45:51.011Z,7092
2018-04-28T05:46:16.839Z,7212
2018-04-28T05:46:42.151Z,7352
2018-04-28T05:47:07.806Z,7408
2018-04-28T05:47:33.417Z,7376
2018-04-28T05:47:59.111Z,7560
2018-04-28T05:48:24.769Z,7608
2018-04-28T05:48:50.372Z,7320
2018-04-28T05:49:16.079Z,7376
2018-04-28T05:49:41.666Z,7652
2018-04-28T05:50:07.335Z,7356
2018-04-28T05:50:32.985Z,7436
2018-04-28T05:50:58.523Z,7696
2018-04-28T05:51:24.370Z,7836
2018-04-28T05:51:49.948Z,7836
2018-04-28T05:52:15.577Z,7948
2018-04-28T05:52:41.131Z,7876
2018-04-28T05:53:06.756Z,7948
2018-04-28T05:53:32.408Z,8184
2018-04-28T05:53:58.017Z,8620
2018-04-28T05:54:23.852Z,8552
2018-04-28T05:54:49.628Z,8488
2018-04-28T05:55:15.347Z,7988
2018-04-28T05:55:41.286Z,7764
2018-04-28T05:56:06.864Z,7696
2018-04-28T05:56:32.591Z,7764
2018-04-28T05:56:58.217Z,7764
2018-04-28T05:57:24.465Z,7800
2018-04-28T05:57:50.084Z,8056
2018-04-28T05:58:15.855Z,8108
2018-04-28T05:58:41.771Z,8308
2018-04-28T05:59:07.394Z,8364
2018-04-28T05:59:32.954Z,8404
2018-04-28T05:59:58.524Z,8380
2018-04-28T06:00:24.152Z,8352
2018-04-28T06:00:49.746Z,8332
2018-04-28T06:01:15.312Z,8196
2018-04-28T06:01:40.961Z,8012
2018-04-28T06:02:06.472Z,7916
2018-04-28T06:02:32.281Z,7808
2018-04-28T06:02:57.872Z,7736
2018-04-28T06:03:23.484Z,7644
2018-04-28T06:03:49.141Z,7660
2018-04-28T06:04:14.878Z,7752
2018-04-28T06:04:40.597Z,7864
2018-04-28T06:05:06.141Z,7936
2018-04-28T06:05:32.027Z,8012
2018-04-28T06:05:57.703Z,7984
2018-04-28T06:06:23.240Z,7940
2018-04-28T06:06:48.929Z,7872
2018-04-28T06:07:14.475Z,7776
2018-04-28T06:07:40.128Z,7684
2018-04-28T06:08:05.681Z,7656
2018-04-28T06:08:31.553Z,7436
2018-04-28T06:08:57.055Z,7408
2018-04-28T06:09:23.074Z,7328
2018-04-28T06:09:48.586Z,7312
2018-04-28T06:10:14.276Z,7404
2018-04-28T06:10:40.117Z,7480
2018-04-28T06:11:05.774Z,7476
2018-04-28T06:11:31.599Z,7448
2018-04-28T06:11:57.448Z,7616
2018-04-28T06:12:23.203Z,7736
2018-04-28T06:12:49.392Z,8276
2018-04-28T06:13:15.312Z,8472
2018-04-28T06:13:41.461Z,8664
2018-04-28T06:14:07.095Z,8764
2018-04-28T06:14:33.111Z,9220
2018-04-28T06:14:59.135Z,9392
2018-04-28T06:15:24.851Z,9684
2018-04-28T06:15:50.443Z,9848
2018-04-28T06:16:15.950Z,9988
2018-04-28T06:16:41.857Z,10160
2018-04-28T06:17:07.517Z,10232
2018-04-28T06:17:33.251Z,10200
2018-04-28T06:17:58.867Z,10572
2018-04-28T06:18:24.446Z,10936
2018-04-28T06:18:50.130Z,11196
2018-04-28T06:19:15.606Z,11240
2018-04-28T06:19:41.251Z,11040
2018-04-28T06:20:06.705Z,11068
2018-04-28T06:20:32.257Z,11140
2018-04-28T06:20:57.980Z,11264
2018-04-28T06:21:23.441Z,11112
2018-04-28T06:21:48.953Z,10656
2018-04-28T06:22:14.461Z,10500
2018-04-28T06:22:40.126Z,10220
2018-04-28T06:23:06.697Z,10068
2018-04-28T06:23:32.263Z,9812
2018-04-28T06:23:57.751Z,9516
2018-04-28T06:24:23.521Z,9312
2018-04-28T06:24:49.055Z,9116
2018-04-28T06:25:14.900Z,8884
2018-04-28T06:25:40.582Z,8704
2018-04-28T06:26:06.407Z,8528
2018-04-28T06:26:33.028Z,8332
2018-04-28T06:26:58.854Z,8228
2018-04-28T06:27:24.297Z,8152
2018-04-28T06:27:49.812Z,8048
2018-04-28T06:28:15.332Z,7948
2018-04-28T06:28:40.905Z,7924
2018-04-28T06:29:06.437Z,7892
2018-04-28T06:29:31.911Z,7816
2018-04-28T06:29:57.409Z,7692
2018-04-28T06:30:22.900Z,7572
2018-04-28T06:30:48.355Z,7468
2018-04-28T06:31:13.900Z,7400
2018-04-28T06:31:39.352Z,7368
2018-04-28T06:32:04.907Z,7376
2018-04-28T06:32:30.411Z,7400
2018-04-28T06:32:55.901Z,7420
2018-04-28T06:33:21.388Z,7432
2018-04-28T06:33:46.835Z,7540
2018-04-28T06:34:12.318Z,7668
2018-04-28T06:34:37.954Z,7796
2018-04-28T06:35:03.386Z,7972
2018-04-28T06:35:29.033Z,8260
2018-04-28T06:35:54.521Z,8576
2018-04-28T06:36:20.181Z,8948
2018-04-28T06:36:45.599Z,9232
2018-04-28T06:37:11.187Z,9452
2018-04-28T06:37:36.656Z,9620
2018-04-28T06:38:02.172Z,9776
2018-04-28T06:38:27.890Z,10004
2018-04-28T06:38:53.338Z,10188
2018-04-28T06:39:18.860Z,10452
2018-04-28T06:39:44.357Z,10816
2018-04-28T06:40:09.815Z,11056
2018-04-28T06:40:35.302Z,11296
2018-04-28T06:41:00.822Z,11344
2018-04-28T06:41:26.314Z,11368
2018-04-28T06:41:51.787Z,11600
2018-04-28T06:42:17.347Z,12848
2018-04-28T06:42:43.000Z,12924
2018-04-28T06:43:08.472Z,13084
2018-04-28T06:43:34.054Z,13340
2018-04-28T06:43:59.562Z,13308
2018-04-28T06:44:25.098Z,14784
2018-04-28T06:44:50.593Z,16480
2018-04-28T06:45:16.074Z,18688
2018-04-28T06:45:41.629Z,19584
2018-04-28T06:46:07.123Z,21344
2018-04-28T06:46:32.576Z,19392
2018-04-28T06:46:58.075Z,22816
2018-04-28T06:47:23.581Z,23104
2018-04-28T06:47:49.066Z,23008
2018-04-28T06:48:14.565Z,21504
2018-04-28T06:48:40.176Z,14248
2018-04-28T06:49:05.672Z,16064
2018-04-28T06:49:31.163Z,20768
2018-04-28T06:49:56.663Z,20224
2018-04-28T06:50:22.155Z,17248
2018-04-28T06:50:47.685Z,14548
2018-04-28T06:51:13.244Z,13092
2018-04-28T06:51:38.775Z,12880
2018-04-28T06:52:04.480Z,11152
2018-04-28T06:52:29.940Z,11236
2018-04-28T06:52:55.482Z,11008
2018-04-28T06:53:20.985Z,10572
2018-04-28T06:53:46.541Z,12276
2018-04-28T06:54:12.034Z,12252
2018-04-28T06:54:37.563Z,13240
2018-04-28T06:55:03.149Z,19456
2018-04-28T06:55:28.614Z,17312
2018-04-28T06:55:54.085Z,19648
2018-04-28T06:56:19.566Z,22624
2018-04-28T06:56:45.282Z,16928
2018-04-28T06:57:10.869Z,21600
2018-04-28T06:57:36.346Z,21216
2018-04-28T06:58:01.862Z,21152
2018-04-28T06:58:27.472Z,21024
2018-04-28T06:58:52.924Z,20864
2018-04-28T06:59:18.525Z,19072
2018-04-28T06:59:44.057Z,17824
2018-04-28T07:00:09.585Z,15416
2018-04-28T07:00:35.115Z,13624
2018-04-28T07:01:00.595Z,14200
2018-04-28T07:02:09.329Z,12460
2018-04-28T07:02:34.866Z,12252
2018-04-28T07:03:00.766Z,12164
2018-04-28T07:03:26.277Z,12228
2018-04-28T07:03:51.809Z,12292
2018-04-28T07:04:17.259Z,12332
2018-04-28T07:04:42.769Z,12308
2018-04-28T07:05:08.299Z,12304
2018-04-28T07:05:33.762Z,12364
2018-04-28T07:05:59.297Z,12372
2018-04-28T07:06:24.791Z,12272
2018-04-28T07:06:50.258Z,12172
2018-04-28T07:07:15.761Z,12196
2018-04-28T07:07:41.246Z,12524
2018-04-28T07:08:06.742Z,12640
2018-04-28T07:08:32.263Z,12692
2018-04-28T07:08:57.756Z,12468
2018-04-28T07:09:23.258Z,12196
2018-04-28T07:09:48.749Z,12452
2018-04-28T07:10:14.247Z,12368
2018-04-28T07:10:39.758Z,12416
2018-04-28T07:11:05.215Z,12376
2018-04-28T07:11:30.797Z,12344
2018-04-28T07:11:56.279Z,12316
2018-04-28T07:12:21.819Z,12312
2018-04-28T07:12:47.347Z,12360
2018-04-28T07:13:12.827Z,12344
2018-04-28T07:13:38.321Z,12328
2018-04-28T07:14:03.834Z,12360
2018-04-28T07:14:29.322Z,12556
2018-04-28T07:14:54.857Z,12612
2018-04-28T07:15:20.324Z,12524
2018-04-28T07:15:45.845Z,12476
2018-04-28T07:16:11.335Z,13064
2018-04-28T07:16:36.891Z,13192
2018-04-28T07:17:02.447Z,13048
2018-04-28T07:17:27.896Z,13508
2018-04-28T07:17:53.399Z,13712
2018-04-28T07:18:18.887Z,13736
2018-04-28T07:18:44.406Z,13768
2018-04-28T07:19:09.936Z,13804
2018-04-28T07:19:35.443Z,13640
2018-04-28T07:20:00.941Z,13228
2018-04-28T07:20:26.514Z,12872
2018-04-28T07:20:51.971Z,13320
2018-04-28T07:21:17.408Z,13384
2018-04-28T07:21:43.009Z,13472
2018-04-28T07:22:08.522Z,13604
2018-04-28T07:22:34.018Z,13168
2018-04-28T07:22:59.536Z,13644
2018-04-28T07:23:25.053Z,12948
2018-04-28T07:23:50.571Z,12816
2018-04-28T07:24:16.085Z,12516
2018-04-28T07:24:41.681Z,12532
2018-04-28T07:25:07.186Z,12444
2018-04-28T07:25:32.667Z,12296
2018-04-28T07:25:58.185Z,12140
2018-04-28T07:26:23.668Z,12084
2018-04-28T07:26:49.155Z,11944
2018-04-28T07:27:14.675Z,11840
2018-04-28T07:27:40.172Z,11860
2018-04-28T07:28:05.641Z,11944
2018-04-28T07:28:31.232Z,11828
2018-04-28T07:28:56.739Z,11836
2018-04-28T07:29:22.287Z,12124
2018-04-28T07:29:47.899Z,12092
2018-04-28T07:30:13.324Z,12324
2018-04-28T07:30:38.689Z,12516
2018-04-28T07:31:04.173Z,12828
2018-04-28T07:31:29.660Z,12924
2018-04-28T07:31:55.292Z,12964
2018-04-28T07:32:20.762Z,13196
2018-04-28T07:32:46.360Z,13580
2018-04-28T07:33:11.926Z,13692
2018-04-28T07:33:37.439Z,13724
2018-04-28T07:34:02.951Z,13688
2018-04-28T07:34:28.415Z,13692
2018-04-28T07:34:53.910Z,13692
2018-04-28T07:35:19.425Z,13784
2018-04-28T07:35:44.925Z,13948
2018-04-28T07:36:10.413Z,14000
2018-04-28T07:36:35.993Z,13912
2018-04-28T07:37:01.533Z,13756
2018-04-28T07:37:27.056Z,13592
2018-04-28T07:37:52.525Z,13444
2018-04-28T07:38:18.039Z,13360
2018-04-28T07:38:43.557Z,13168
2018-04-28T07:39:09.056Z,13244
2018-04-28T07:39:34.557Z,13320
2018-04-28T07:40:00.093Z,13660
2018-04-28T07:40:25.589Z,13432
2018-04-28T07:40:51.061Z,13436
2018-04-28T07:41:16.541Z,14104
2018-04-28T07:41:42.042Z,14340
2018-04-28T07:42:07.539Z,14528
2018-04-28T07:42:33.089Z,14592
2018-04-28T07:42:58.614Z,14616
2018-04-28T07:43:24.678Z,14580
2018-04-28T07:43:50.273Z,14704
2018-04-28T07:44:15.752Z,14916
2018-04-28T07:44:41.413Z,14732
2018-04-28T07:45:06.845Z,14464
2018-04-28T07:45:32.331Z,14492
2018-04-28T07:45:57.843Z,14564
2018-04-28T07:46:23.394Z,14704
2018-04-28T07:46:48.805Z,14544
2018-04-28T07:47:14.345Z,14380
2018-04-28T07:47:39.867Z,14292
2018-04-28T07:48:05.387Z,13864
2018-04-28T07:48:30.885Z,13380
2018-04-28T07:48:56.398Z,13184
2018-04-28T07:49:21.913Z,13288
2018-04-28T07:49:47.516Z,13428
2018-04-28T07:50:13.075Z,13480
2018-04-28T07:50:38.665Z,13516
2018-04-28T07:51:04.283Z,13468
2018-04-28T07:51:29.805Z,13376
2018-04-28T07:51:56.725Z,13276
2018-04-28T07:52:22.233Z,13180
2018-04-28T07:52:47.771Z,13112
2018-04-28T07:53:13.342Z,12984
2018-04-28T07:53:38.892Z,12596
2018-04-28T07:54:04.512Z,12536
2018-04-28T07:54:29.984Z,12448
2018-04-28T07:54:55.558Z,12316
2018-04-28T07:55:21.130Z,12352
2018-04-28T07:55:46.901Z,12404
2018-04-28T07:56:12.305Z,12548
2018-04-28T07:56:37.825Z,12516
2018-04-28T07:57:03.329Z,12460
2018-04-28T07:57:28.878Z,12576
2018-04-28T07:57:54.396Z,12696
2018-04-28T07:58:19.895Z,12852
2018-04-28T07:58:45.478Z,13048
2018-04-28T07:59:11.021Z,13312
2018-04-28T07:59:36.601Z,13500
2018-04-28T08:00:02.113Z,13836
2018-04-28T08:00:27.779Z,14076
2018-04-28T08:00:53.250Z,14500
2018-04-28T08:01:18.808Z,14712
2018-04-28T08:01:44.458Z,14108
2018-04-28T08:02:10.034Z,13992
2018-04-28T08:02:35.563Z,13892
2018-04-28T08:03:01.111Z,13492
2018-04-28T08:03:26.641Z,13332
2018-04-28T08:03:52.183Z,13408
2018-04-28T08:04:17.717Z,13564
2018-04-28T08:04:43.191Z,13424
2018-04-28T08:05:08.730Z,13860
2018-04-28T08:05:34.271Z,14228
2018-04-28T08:05:59.793Z,14220
2018-04-28T08:06:25.300Z,13932
2018-04-28T08:06:50.858Z,13768
2018-04-28T08:07:16.378Z,13288
2018-04-28T08:07:41.869Z,12912
2018-04-28T08:08:07.378Z,12724
2018-04-28T08:08:32.880Z,12288
2018-04-28T08:08:58.379Z,12044
2018-04-28T08:09:23.855Z,11752
2018-04-28T08:09:49.342Z,11380
2018-04-28T08:10:14.856Z,10880
2018-04-28T08:10:40.451Z,10548
2018-04-28T08:11:05.886Z,10464
2018-04-28T08:11:31.390Z,10496
2018-04-28T08:11:56.949Z,10332
2018-04-28T08:12:22.393Z,10424
2018-04-28T08:12:47.845Z,10828
2018-04-28T08:13:13.350Z,11320
2018-04-28T08:13:38.881Z,11656
2018-04-28T08:14:04.389Z,12100
2018-04-28T08:14:29.861Z,12280
2018-04-28T08:14:55.354Z,12072
2018-04-28T08:15:20.959Z,11732
2018-04-28T08:15:46.362Z,11548
2018-04-28T08:16:11.848Z,11248
2018-04-28T08:16:37.325Z,10844
2018-04-28T08:17:02.811Z,10496
2018-04-28T08:17:28.302Z,9884
2018-04-28T08:17:53.806Z,9280
2018-04-28T08:18:19.293Z,9024
2018-04-28T08:18:44.796Z,9016
2018-04-28T08:19:10.292Z,9176
2018-04-28T08:19:35.738Z,9348
2018-04-28T08:20:01.230Z,9396
2018-04-28T08:20:26.719Z,9160
2018-04-28T08:20:52.218Z,8868
2018-04-28T08:21:17.706Z,8648
2018-04-28T08:21:43.249Z,8660
2018-04-28T08:22:08.710Z,8812
2018-04-28T08:22:34.225Z,9044
2018-04-28T08:22:59.705Z,9156
2018-04-28T08:23:25.202Z,9180
2018-04-28T08:23:50.779Z,9024
2018-04-28T08:25:09.745Z,7792
2018-04-28T08:25:35.261Z,7516
2018-04-28T08:26:00.734Z,7412
2018-04-28T08:26:26.259Z,7372
2018-04-28T08:26:51.727Z,7364
2018-04-28T08:27:17.296Z,7332
2018-04-28T08:27:42.843Z,7396
2018-04-28T08:28:08.373Z,7468
2018-04-28T08:28:33.910Z,7560
2018-04-28T08:28:59.390Z,7312
2018-04-28T08:29:24.903Z,7588
2018-04-28T08:29:50.409Z,7708
2018-04-28T08:30:15.913Z,7412
2018-04-28T08:30:41.424Z,6944
2018-04-28T08:31:06.950Z,6656
2018-04-28T08:31:32.549Z,6696
2018-04-28T08:31:58.080Z,6864
2018-04-28T08:32:23.548Z,7028
2018-04-28T08:32:49.101Z,7244
2018-04-28T08:33:14.602Z,7552
2018-04-28T08:33:40.085Z,7812
2018-04-28T08:34:05.612Z,8040
2018-04-28T08:34:31.167Z,8156
2018-04-28T08:34:56.681Z,8112
2018-04-28T08:35:22.211Z,8084
2018-04-28T08:36:41.248Z,8332
2018-04-28T08:37:06.940Z,8348
2018-04-28T08:37:32.353Z,8440
2018-04-28T08:37:57.868Z,8644
2018-04-28T08:38:23.497Z,8708
2018-04-28T08:38:49.186Z,8740
2018-04-28T08:39:14.773Z,8820
2018-04-28T08:39:40.336Z,8796
2018-04-28T08:40:05.892Z,8436
2018-04-28T08:40:31.469Z,8156
2018-04-28T08:40:57.060Z,8324
2018-04-28T08:41:22.647Z,8608
2018-04-28T08:41:48.159Z,8752
2018-04-28T08:42:13.710Z,8704
2018-04-28T08:42:39.261Z,8668
2018-04-28T08:43:04.770Z,8692
2018-04-28T08:43:30.271Z,8768
2018-04-28T08:43:55.805Z,8852
2018-04-28T08:44:21.381Z,9076
2018-04-28T08:44:46.869Z,9208
2018-04-28T08:45:12.430Z,9472
2018-04-28T08:45:38.021Z,9924
2018-04-28T08:46:03.542Z,10316
2018-04-28T08:46:29.028Z,10556
2018-04-28T08:46:54.611Z,10880
2018-04-28T08:47:20.294Z,11276
2018-04-28T08:47:45.825Z,11444
2018-04-28T08:48:11.506Z,11400
2018-04-28T08:48:37.171Z,11452
2018-04-28T08:49:02.683Z,11856
2018-04-28T08:49:28.228Z,12224
2018-04-28T08:49:53.903Z,12332
2018-04-28T08:50:19.487Z,12344
2018-04-28T08:50:45.188Z,12084
2018-04-28T08:51:10.706Z,11720
2018-04-28T08:51:36.246Z,11508
2018-04-28T08:52:01.785Z,11248
2018-04-28T08:52:27.313Z,11212
2018-04-28T08:52:52.862Z,11556
2018-04-28T08:53:18.423Z,11832
2018-04-28T08:53:44.019Z,11804
2018-04-28T08:54:09.528Z,11568
2018-04-28T08:54:35.037Z,11380
2018-04-28T08:55:00.586Z,11116
2018-04-28T08:55:26.097Z,11052
2018-04-28T08:55:51.718Z,11344
2018-04-28T08:56:17.185Z,11804
2018-04-28T08:56:42.747Z,12128
2018-04-28T08:57:08.268Z,12064
2018-04-28T08:57:33.809Z,12060
2018-04-28T08:57:59.312Z,12492
2018-04-28T08:58:24.876Z,12996
2018-04-28T08:58:50.420Z,13524
2018-04-28T08:59:15.957Z,13868
2018-04-28T08:59:41.475Z,14060
2018-04-28T09:00:06.985Z,14188
2018-04-28T09:00:32.562Z,14100
2018-04-28T09:00:58.114Z,13784
2018-04-28T09:01:23.657Z,13536
2018-04-28T09:01:49.250Z,13688
2018-04-28T09:02:14.795Z,13832
2018-04-28T09:02:40.359Z,13864
2018-04-28T09:03:05.845Z,13780
2018-04-28T09:03:31.340Z,14092
2018-04-28T09:03:56.813Z,14544
2018-04-28T09:04:22.370Z,15264
2018-04-28T09:04:47.861Z,15588
2018-04-28T09:05:13.361Z,15292
2018-04-28T09:05:38.911Z,14792
2018-04-28T09:06:04.477Z,14636
2018-04-28T09:06:29.951Z,14948
2018-04-28T09:06:55.560Z,15040
2018-04-28T09:07:21.080Z,15132
2018-04-28T09:07:46.563Z,14980
2018-04-28T09:08:12.073Z,14728
2018-04-28T09:08:37.618Z,14204
2018-04-28T09:09:03.167Z,13544
2018-04-28T09:09:28.634Z,12980
2018-04-28T09:09:54.221Z,12544
2018-04-28T09:10:19.777Z,12492
2018-04-28T09:10:45.330Z,13292
2018-04-28T09:11:10.834Z,14072
2018-04-28T09:11:36.325Z,14456
2018-04-28T09:12:01.889Z,15008
2018-04-28T09:12:27.380Z,15636
2018-04-28T09:12:52.860Z,15896
2018-04-28T09:13:18.382Z,15356
2018-04-28T09:13:43.863Z,15216
2018-04-28T09:14:09.329Z,15128
2018-04-28T09:14:34.990Z,15440
2018-04-28T09:15:00.650Z,15312
2018-04-28T09:15:26.238Z,15716
2018-04-28T09:15:52.120Z,15612
2018-04-28T09:16:17.861Z,15168
2018-04-28T09:16:43.237Z,14652
2018-04-28T09:17:08.779Z,14160
2018-04-28T09:17:34.410Z,13780
2018-04-28T09:18:00.094Z,13516
2018-04-28T09:18:25.816Z,13472
2018-04-28T09:18:51.509Z,14256
2018-04-28T09:19:17.343Z,14396
2018-04-28T09:19:43.322Z,14272
2018-04-28T09:20:08.822Z,13544
2018-04-28T09:20:35.656Z,12636
2018-04-28T09:21:59.881Z,10728
2018-04-28T09:22:25.443Z,10628
2018-04-28T09:22:51.248Z,11144
2018-04-28T09:23:17.165Z,11516
2018-04-28T09:23:42.666Z,11444
2018-04-28T09:24:08.165Z,11436
2018-04-28T09:24:33.666Z,11472
2018-04-28T09:24:59.178Z,11232
2018-04-28T09:25:24.720Z,11132
2018-04-28T09:25:50.152Z,11260
2018-04-28T09:26:15.661Z,11340
2018-04-28T09:26:41.170Z,11200
2018-04-28T09:27:06.738Z,11104
2018-04-28T09:27:32.230Z,11144
2018-04-28T09:27:57.737Z,11092
2018-04-28T09:28:23.225Z,10936
2018-04-28T09:28:48.764Z,10968
2018-04-28T09:29:14.288Z,10912
2018-04-28T09:29:39.761Z,10688
2018-04-28T09:30:05.222Z,10016
2018-04-28T09:30:30.780Z,9788
2018-04-28T09:30:56.209Z,9748
2018-04-28T09:31:21.732Z,9560
2018-04-28T09:31:47.242Z,9956
2018-04-28T09:32:12.715Z,10740
2018-04-28T09:32:38.199Z,11396
2018-04-28T09:33:03.740Z,11856
2018-04-28T09:33:29.188Z,11432
2018-04-28T09:33:54.698Z,10448
2018-04-28T09:34:20.212Z,9520
2018-04-28T09:34:45.783Z,8892
2018-04-28T09:35:11.303Z,8780
2018-04-28T09:35:36.806Z,8440
2018-04-28T09:36:02.285Z,8612
2018-04-28T09:36:27.797Z,9456
2018-04-28T09:36:53.296Z,9312
2018-04-28T09:37:18.836Z,9340
2018-04-28T09:37:44.330Z,9460
2018-04-28T09:38:09.850Z,9484
2018-04-28T09:38:35.355Z,9864
2018-04-28T09:39:00.860Z,10656
2018-04-28T09:39:26.363Z,10776
2018-04-28T09:39:51.970Z,10648
2018-04-28T09:40:17.407Z,10248
2018-04-28T09:40:42.885Z,9968
2018-04-28T09:41:08.381Z,9704
2018-04-28T09:41:33.886Z,9868
2018-04-28T09:41:59.375Z,10408
2018-04-28T09:42:24.862Z,10960
2018-04-28T09:42:50.381Z,11124
2018-04-28T09:43:15.840Z,10760
2018-04-28T09:43:41.342Z,9844
2018-04-28T09:44:06.824Z,8960
2018-04-28T09:44:32.317Z,8140
2018-04-28T09:44:57.833Z,7220
2018-04-28T09:45:23.364Z,6532
2018-04-28T09:45:48.864Z,6080
2018-04-28T09:46:14.388Z,6036
2018-04-28T09:46:39.899Z,6760
2018-04-28T09:47:05.387Z,8144
2018-04-28T09:47:30.850Z,9516
2018-04-28T09:48:34.460Z,11612
2018-04-28T09:48:59.950Z,11928
2018-04-28T09:49:25.442Z,12292
2018-04-28T09:49:50.949Z,12472
2018-04-28T09:50:16.452Z,12528
2018-04-28T09:50:41.945Z,12520
2018-04-28T09:51:07.431Z,12324